sensor_id;sensor_type;location;lat;lon;timestamp;P1;durP1;ratioP1;P2;durP2;ratioP2
15167;SDS011;7684;52.150;11.656;2022-09-23T04:18:45;6.30;;;5.47;;
15167;SDS011;7684;52.150;11.656;2022-09-23T04:21:12;6.07;;;5.47;;
15167;SDS011;7684;52.150;11.656;2022-09-23T04:23:38;5.53;;;5.00;;
15167;SDS011;7684;52.150;11.656;2022-09-23T04:26:05;5.93;;;5.33;;
15167;SDS011;7684;52.150;11.656;2022-09-23T04:28:32;6.77;;;6.07;;
15167;SDS011;7684;52.150;11.656;2022-09-23T04:30:58;6.33;;;5.33;;
15167;SDS011;7684;52.150;11.656;2022-09-23T04:33:28;5.87;;;5.17;;
15167;SDS011;7684;52.150;11.656;2022-09-23T04:35:55;6.13;;;5.57;;
15167;SDS011;7684;52.150;11.656;2022-09-23T04:38:22;6.37;;;5.03;;
15167;SDS011;7684;52.150;11.656;2022-09-23T04:40:48;6.93;;;5.53;;
15167;SDS011;7684;52.150;11.656;2022-09-23T04:43:15;6.30;;;5.70;;
15167;SDS011;7684;52.150;11.656;2022-09-23T04:45:41;6.57;;;5.97;;
15167;SDS011;7684;52.150;11.656;2022-09-23T04:48:08;6.50;;;5.87;;
15167;SDS011;7684;52.150;11.656;2022-09-23T04:50:34;6.47;;;5.77;;
15167;SDS011;7684;52.150;11.656;2022-09-23T04:53:03;6.53;;;5.77;;
15167;SDS011;7684;52.150;11.656;2022-09-23T04:55:29;7.07;;;6.37;;
15167;SDS011;7684;52.150;11.656;2022-09-23T04:57:56;5.93;;;5.43;;
15167;SDS011;7684;52.150;11.656;2022-09-23T05:00:22;6.23;;;5.63;;
15167;SDS011;7684;52.150;11.656;2022-09-23T05:02:51;7.97;;;5.97;;
15167;SDS011;7684;52.150;11.656;2022-09-23T05:05:17;6.73;;;5.90;;
15167;SDS011;7684;52.150;11.656;2022-09-23T05:07:45;8.23;;;6.23;;
15167;SDS011;7684;52.150;11.656;2022-09-23T05:10:12;7.83;;;5.87;;
15167;SDS011;7684;52.150;11.656;2022-09-23T05:12:39;7.60;;;5.57;;
15167;SDS011;7684;52.150;11.656;2022-09-23T05:15:06;9.63;;;6.20;;
15167;SDS011;7684;52.150;11.656;2022-09-23T05:17:33;6.50;;;5.80;;
15167;SDS011;7684;52.150;11.656;2022-09-23T05:20:01;7.17;;;6.13;;
15167;SDS011;7684;52.150;11.656;2022-09-23T05:22:28;6.13;;;5.53;;
15167;SDS011;7684;52.150;11.656;2022-09-23T05:24:54;7.00;;;5.93;;
15167;SDS011;7684;52.150;11.656;2022-09-23T05:27:24;6.77;;;5.97;;
15167;SDS011;7684;52.150;11.656;2022-09-23T05:29:50;7.07;;;6.37;;
15167;SDS011;7684;52.150;11.656;2022-09-23T05:32:17;8.00;;;6.73;;
15167;SDS011;7684;52.150;11.656;2022-09-23T05:34:43;7.87;;;6.27;;
15167;SDS011;7684;52.150;11.656;2022-09-23T05:37:09;7.80;;;6.77;;
15167;SDS011;7684;52.150;11.656;2022-09-23T05:39:36;7.27;;;6.20;;
15167;SDS011;7684;52.150;11.656;2022-09-23T05:42:02;9.53;;;7.50;;
15167;SDS011;7684;52.150;11.656;2022-09-23T05:44:30;11.67;;;6.20;;
15167;SDS011;7684;52.150;11.656;2022-09-23T05:46:57;9.73;;;7.43;;
15167;SDS011;7684;52.150;11.656;2022-09-23T05:49:23;8.80;;;5.87;;
15167;SDS011;7684;52.150;11.656;2022-09-23T05:51:50;6.40;;;5.80;;
15167;SDS011;7684;52.150;11.656;2022-09-23T05:54:16;7.03;;;6.20;;
15167;SDS011;7684;52.150;11.656;2022-09-23T05:56:43;6.43;;;5.80;;
15167;SDS011;7684;52.150;11.656;2022-09-23T05:59:09;7.60;;;6.57;;
15167;SDS011;7684;52.150;11.656;2022-09-23T06:01:37;7.47;;;5.80;;
15167;SDS011;7684;52.150;11.656;2022-09-23T06:04:05;8.77;;;6.43;;
15167;SDS011;7684;52.150;11.656;2022-09-23T06:06:32;9.23;;;6.00;;
15167;SDS011;7684;52.150;11.656;2022-09-23T06:08:59;7.30;;;5.90;;
15167;SDS011;7684;52.150;11.656;2022-09-23T06:11:28;9.10;;;6.07;;
15167;SDS011;7684;52.150;11.656;2022-09-23T06:13:55;6.97;;;6.30;;
15167;SDS011;7684;52.150;11.656;2022-09-23T06:16:25;8.60;;;6.63;;
15167;SDS011;7684;52.150;11.656;2022-09-23T06:18:53;6.50;;;5.80;;
15167;SDS011;7684;52.150;11.656;2022-09-23T06:21:19;7.87;;;7.13;;
15167;SDS011;7684;52.150;11.656;2022-09-23T06:23:46;7.47;;;5.80;;
15167;SDS011;7684;52.150;11.656;2022-09-23T06:26:13;6.70;;;5.97;;
15167;SDS011;7684;52.150;11.656;2022-09-23T06:28:41;8.03;;;6.30;;
15167;SDS011;7684;52.150;11.656;2022-09-23T06:31:09;7.20;;;6.50;;
15167;SDS011;7684;52.150;11.656;2022-09-23T06:33:36;7.00;;;6.40;;
15167;SDS011;7684;52.150;11.656;2022-09-23T06:36:05;7.10;;;6.13;;
15167;SDS011;7684;52.150;11.656;2022-09-23T06:38:31;7.40;;;6.70;;
15167;SDS011;7684;52.150;11.656;2022-09-23T06:40:58;9.77;;;6.80;;
15167;SDS011;7684;52.150;11.656;2022-09-23T06:43:25;6.70;;;5.97;;
15167;SDS011;7684;52.150;11.656;2022-09-23T06:45:52;8.57;;;6.47;;
15167;SDS011;7684;52.150;11.656;2022-09-23T06:48:19;6.83;;;6.07;;
15167;SDS011;7684;52.150;11.656;2022-09-23T06:50:46;8.43;;;7.03;;
15167;SDS011;7684;52.150;11.656;2022-09-23T06:53:15;8.47;;;7.40;;
15167;SDS011;7684;52.150;11.656;2022-09-23T06:55:41;7.27;;;6.47;;
15167;SDS011;7684;52.150;11.656;2022-09-23T06:58:08;7.43;;;6.27;;
15167;SDS011;7684;52.150;11.656;2022-09-23T07:00:35;6.70;;;6.10;;
15167;SDS011;7684;52.150;11.656;2022-09-23T07:03:04;8.33;;;6.30;;
15167;SDS011;7684;52.150;11.656;2022-09-23T07:05:31;56.03;;;13.60;;
15167;SDS011;7684;52.150;11.656;2022-09-23T07:07:58;32.63;;;11.43;;
15167;SDS011;7684;52.150;11.656;2022-09-23T07:10:26;45.17;;;11.33;;
15167;SDS011;7684;52.150;11.656;2022-09-23T07:12:53;45.57;;;11.03;;
15167;SDS011;7684;52.150;11.656;2022-09-23T07:15:20;26.50;;;8.73;;
15167;SDS011;7684;52.150;11.656;2022-09-23T07:17:46;25.90;;;9.50;;
15167;SDS011;7684;52.150;11.656;2022-09-23T07:20:13;14.50;;;6.60;;
15167;SDS011;7684;52.150;11.656;2022-09-23T07:22:42;6.73;;;5.70;;
15167;SDS011;7684;52.150;11.656;2022-09-23T07:25:08;37.37;;;10.07;;
15167;SDS011;7684;52.150;11.656;2022-09-23T07:27:36;47.90;;;11.93;;
15167;SDS011;7684;52.150;11.656;2022-09-23T07:30:03;49.93;;;13.37;;
15167;SDS011;7684;52.150;11.656;2022-09-23T07:32:30;15.83;;;7.90;;
15167;SDS011;7684;52.150;11.656;2022-09-23T07:34:56;42.40;;;9.17;;
15167;SDS011;7684;52.150;11.656;2022-09-23T07:37:23;9.80;;;6.23;;
15167;SDS011;7684;52.150;11.656;2022-09-23T07:39:49;9.00;;;6.80;;
15167;SDS011;7684;52.150;11.656;2022-09-23T07:42:16;7.30;;;5.83;;
15167;SDS011;7684;52.150;11.656;2022-09-23T07:44:44;7.77;;;6.53;;
15167;SDS011;7684;52.150;11.656;2022-09-23T07:47:11;7.00;;;6.10;;
15167;SDS011;7684;52.150;11.656;2022-09-23T07:49:38;7.07;;;6.00;;
15167;SDS011;7684;52.150;11.656;2022-09-23T07:52:05;7.53;;;6.20;;
15167;SDS011;7684;52.150;11.656;2022-09-23T07:54:31;6.73;;;6.03;;
15167;SDS011;7684;52.150;11.656;2022-09-23T07:56:57;7.73;;;6.30;;
15167;SDS011;7684;52.150;11.656;2022-09-23T07:59:24;7.93;;;6.33;;
15167;SDS011;7684;52.150;11.656;2022-09-23T08:01:52;7.63;;;6.53;;
15167;SDS011;7684;52.150;11.656;2022-09-23T08:04:21;8.27;;;6.60;;
15167;SDS011;7684;52.150;11.656;2022-09-23T08:06:49;6.77;;;6.07;;
15167;SDS011;7684;52.150;11.656;2022-09-23T08:09:16;6.73;;;6.00;;
15167;SDS011;7684;52.150;11.656;2022-09-23T08:11:42;7.10;;;6.40;;
15167;SDS011;7684;52.150;11.656;2022-09-23T08:14:10;7.13;;;6.43;;
15167;SDS011;7684;52.150;11.656;2022-09-23T08:16:37;6.50;;;5.90;;
15167;SDS011;7684;52.150;11.656;2022-09-23T08:19:05;8.77;;;6.10;;
15167;SDS011;7684;52.150;11.656;2022-09-23T08:21:32;7.53;;;6.13;;
15167;SDS011;7684;52.150;11.656;2022-09-23T08:23:58;6.83;;;5.80;;
15167;SDS011;7684;52.150;11.656;2022-09-23T08:26:25;5.97;;;5.37;;
15167;SDS011;7684;52.150;11.656;2022-09-23T08:28:51;6.30;;;5.70;;
15167;SDS011;7684;52.150;11.656;2022-09-23T08:31:18;5.90;;;5.10;;
15167;SDS011;7684;52.150;11.656;2022-09-23T08:33:45;6.07;;;5.20;;
15167;SDS011;7684;52.150;11.656;2022-09-23T08:36:13;5.97;;;5.13;;
15167;SDS011;7684;52.150;11.656;2022-09-23T08:38:39;6.33;;;5.30;;
15167;SDS011;7684;52.150;11.656;2022-09-23T08:41:06;7.23;;;5.30;;
15167;SDS011;7684;52.150;11.656;2022-09-23T08:43:35;6.83;;;4.90;;
15167;SDS011;7684;52.150;11.656;2022-09-23T08:46:02;6.93;;;4.87;;
15167;SDS011;7684;52.150;11.656;2022-09-23T08:48:29;7.23;;;4.50;;
15167;SDS011;7684;52.150;11.656;2022-09-23T08:50:58;4.73;;;4.07;;
15167;SDS011;7684;52.150;11.656;2022-09-23T08:53:29;6.00;;;4.23;;
15167;SDS011;7684;52.150;11.656;2022-09-23T08:55:57;6.53;;;4.60;;
15167;SDS011;7684;52.150;11.656;2022-09-23T08:58:34;5.03;;;3.50;;
15167;SDS011;7684;52.150;11.656;2022-09-23T09:01:10;4.63;;;3.97;;
15167;SDS011;7684;52.150;11.656;2022-09-23T09:03:39;5.90;;;3.60;;
15167;SDS011;7684;52.150;11.656;2022-09-23T09:06:09;4.43;;;3.30;;
15167;SDS011;7684;52.150;11.656;2022-09-23T09:08:39;8.03;;;3.37;;
15167;SDS011;7684;52.150;11.656;2022-09-23T09:11:06;4.05;;;3.65;;
15167;SDS011;7684;52.150;11.656;2022-09-23T09:13:36;5.57;;;3.55;;
15167;SDS011;7684;52.150;11.656;2022-09-23T09:16:16;3.90;;;3.50;;
15167;SDS011;7684;52.150;11.656;2022-09-23T09:18:46;4.10;;;3.70;;
15167;SDS011;7684;52.150;11.656;2022-09-23T09:21:15;4.85;;;3.47;;
15167;SDS011;7684;52.150;11.656;2022-09-23T09:23:44;3.85;;;3.40;;
15167;SDS011;7684;52.150;11.656;2022-09-23T09:26:14;5.10;;;3.40;;
15167;SDS011;7684;52.150;11.656;2022-09-23T09:28:42;4.32;;;3.45;;
15167;SDS011;7684;52.150;11.656;2022-09-23T09:31:15;5.80;;;3.50;;
15167;SDS011;7684;52.150;11.656;2022-09-23T09:33:46;4.93;;;3.13;;
15167;SDS011;7684;52.150;11.656;2022-09-23T09:36:18;4.20;;;3.25;;
15167;SDS011;7684;52.150;11.656;2022-09-23T09:38:47;5.43;;;3.35;;
15167;SDS011;7684;52.150;11.656;2022-09-23T09:41:16;5.40;;;3.22;;
15167;SDS011;7684;52.150;11.656;2022-09-23T09:43:46;5.45;;;3.50;;
15167;SDS011;7684;52.150;11.656;2022-09-23T09:46:22;3.85;;;3.55;;
15167;SDS011;7684;52.150;11.656;2022-09-23T09:48:53;4.40;;;2.97;;
15167;SDS011;7684;52.150;11.656;2022-09-23T09:51:24;3.22;;;2.75;;
15167;SDS011;7684;52.150;11.656;2022-09-23T09:53:53;4.80;;;3.00;;
15167;SDS011;7684;52.150;11.656;2022-09-23T09:56:21;3.20;;;2.90;;
15167;SDS011;7684;52.150;11.656;2022-09-23T09:58:53;4.32;;;3.15;;
15167;SDS011;7684;52.150;11.656;2022-09-23T10:01:21;5.32;;;2.70;;
15167;SDS011;7684;52.150;11.656;2022-09-23T10:03:48;3.40;;;3.10;;
15167;SDS011;7684;52.150;11.656;2022-09-23T10:06:17;3.00;;;2.78;;
15167;SDS011;7684;52.150;11.656;2022-09-23T10:08:47;3.83;;;2.88;;
15167;SDS011;7684;52.150;11.656;2022-09-23T10:11:15;3.70;;;3.40;;
15167;SDS011;7684;52.150;11.656;2022-09-23T10:13:59;5.38;;;3.20;;
15167;SDS011;7684;52.150;11.656;2022-09-23T10:16:26;3.20;;;2.53;;
15167;SDS011;7684;52.150;11.656;2022-09-23T10:18:55;3.25;;;2.40;;
15167;SDS011;7684;52.150;11.656;2022-09-23T10:21:22;3.08;;;2.70;;
15167;SDS011;7684;52.150;11.656;2022-09-23T10:23:50;4.55;;;2.92;;
15167;SDS011;7684;52.150;11.656;2022-09-23T10:26:24;3.75;;;2.85;;
15167;SDS011;7684;52.150;11.656;2022-09-23T10:28:51;3.15;;;2.85;;
15167;SDS011;7684;52.150;11.656;2022-09-23T10:31:21;3.20;;;2.90;;
15167;SDS011;7684;52.150;11.656;2022-09-23T10:33:50;5.28;;;3.15;;
15167;SDS011;7684;52.150;11.656;2022-09-23T10:36:19;2.88;;;2.67;;
15167;SDS011;7684;52.150;11.656;2022-09-23T10:38:46;2.83;;;2.63;;
15167;SDS011;7684;52.150;11.656;2022-09-23T10:41:17;3.70;;;3.25;;
15167;SDS011;7684;52.150;11.656;2022-09-23T10:44:10;3.20;;;2.72;;
15167;SDS011;7684;52.150;11.656;2022-09-23T10:46:59;2.83;;;2.33;;
15167;SDS011;7684;52.150;11.656;2022-09-23T10:49:43;2.95;;;2.65;;
15167;SDS011;7684;52.150;11.656;2022-09-23T10:52:20;3.88;;;2.45;;
15167;SDS011;7684;52.150;11.656;2022-09-23T10:54:54;3.30;;;2.50;;
15167;SDS011;7684;52.150;11.656;2022-09-23T10:57:26;3.83;;;2.42;;
15167;SDS011;7684;52.150;11.656;2022-09-23T11:00:11;2.35;;;2.17;;
15167;SDS011;7684;52.150;11.656;2022-09-23T11:02:47;2.78;;;2.50;;
15167;SDS011;7684;52.150;11.656;2022-09-23T11:05:19;2.63;;;2.15;;
15167;SDS011;7684;52.150;11.656;2022-09-23T11:07:51;3.63;;;2.45;;
15167;SDS011;7684;52.150;11.656;2022-09-23T11:10:36;2.55;;;2.33;;
15167;SDS011;7684;52.150;11.656;2022-09-23T11:13:09;2.45;;;2.25;;
15167;SDS011;7684;52.150;11.656;2022-09-23T11:15:43;2.70;;;1.90;;
15167;SDS011;7684;52.150;11.656;2022-09-23T11:18:17;2.83;;;1.95;;
15167;SDS011;7684;52.150;11.656;2022-09-23T11:20:51;1.83;;;1.60;;
15167;SDS011;7684;52.150;11.656;2022-09-23T11:23:28;2.80;;;2.00;;
15167;SDS011;7684;52.150;11.656;2022-09-23T11:25:59;2.83;;;2.17;;
15167;SDS011;7684;52.150;11.656;2022-09-23T11:28:33;2.60;;;1.85;;
15167;SDS011;7684;52.150;11.656;2022-09-23T11:31:07;2.30;;;1.70;;
15167;SDS011;7684;52.150;11.656;2022-09-23T11:33:44;2.13;;;1.85;;
15167;SDS011;7684;52.150;11.656;2022-09-23T11:36:14;3.08;;;1.60;;
15167;SDS011;7684;52.150;11.656;2022-09-23T11:38:48;2.45;;;1.65;;
15167;SDS011;7684;52.150;11.656;2022-09-23T11:41:16;1.65;;;1.35;;
15167;SDS011;7684;52.150;11.656;2022-09-23T11:43:45;2.10;;;1.65;;
15167;SDS011;7684;52.150;11.656;2022-09-23T11:46:19;2.72;;;1.50;;
15167;SDS011;7684;52.150;11.656;2022-09-23T11:48:49;1.67;;;1.20;;
15167;SDS011;7684;52.150;11.656;2022-09-23T11:51:19;1.17;;;1.08;;
15167;SDS011;7684;52.150;11.656;2022-09-23T11:53:47;1.25;;;1.00;;
15167;SDS011;7684;52.150;11.656;2022-09-23T11:56:15;1.23;;;1.10;;
15167;SDS011;7684;52.150;11.656;2022-09-23T11:58:45;2.58;;;1.23;;
15167;SDS011;7684;52.150;11.656;2022-09-23T12:01:15;1.65;;;1.20;;
15167;SDS011;7684;52.150;11.656;2022-09-23T12:03:46;1.73;;;1.40;;
15167;SDS011;7684;52.150;11.656;2022-09-23T12:06:14;2.60;;;1.17;;
15167;SDS011;7684;52.150;11.656;2022-09-23T12:08:43;1.60;;;1.25;;
15167;SDS011;7684;52.150;11.656;2022-09-23T12:11:13;1.23;;;1.10;;
15167;SDS011;7684;52.150;11.656;2022-09-23T12:13:43;1.85;;;1.48;;
15167;SDS011;7684;52.150;11.656;2022-09-23T12:16:24;2.83;;;1.60;;
15167;SDS011;7684;52.150;11.656;2022-09-23T12:18:57;1.50;;;1.20;;
15167;SDS011;7684;52.150;11.656;2022-09-23T12:21:35;3.03;;;1.55;;
15167;SDS011;7684;52.150;11.656;2022-09-23T12:24:08;1.83;;;1.45;;
15167;SDS011;7684;52.150;11.656;2022-09-23T12:26:39;2.20;;;1.92;;
15167;SDS011;7684;52.150;11.656;2022-09-23T12:29:08;2.58;;;1.80;;
15167;SDS011;7684;52.150;11.656;2022-09-23T12:31:36;4.30;;;2.13;;
15167;SDS011;7684;52.150;11.656;2022-09-23T12:34:15;2.20;;;1.50;;
15167;SDS011;7684;52.150;11.656;2022-09-23T12:36:43;2.65;;;1.85;;
15167;SDS011;7684;52.150;11.656;2022-09-23T12:39:13;2.00;;;1.83;;
15167;SDS011;7684;52.150;11.656;2022-09-23T12:41:40;2.13;;;1.85;;
15167;SDS011;7684;52.150;11.656;2022-09-23T12:44:13;2.72;;;1.40;;
15167;SDS011;7684;52.150;11.656;2022-09-23T12:46:39;1.75;;;1.63;;
15167;SDS011;7684;52.150;11.656;2022-09-23T12:49:20;3.28;;;1.35;;
15167;SDS011;7684;52.150;11.656;2022-09-23T12:54:28;1.92;;;1.50;;
15167;SDS011;7684;52.150;11.656;2022-09-23T12:57:01;1.80;;;1.40;;
15167;SDS011;7684;52.150;11.656;2022-09-23T12:59:29;1.20;;;1.10;;
15167;SDS011;7684;52.150;11.656;2022-09-23T13:01:56;2.70;;;1.40;;
15167;SDS011;7684;52.150;11.656;2022-09-23T13:04:32;1.77;;;1.52;;
15167;SDS011;7684;52.150;11.656;2022-09-23T13:07:17;1.15;;;1.05;;
15167;SDS011;7684;52.150;11.656;2022-09-23T13:09:47;2.00;;;1.30;;
15167;SDS011;7684;52.150;11.656;2022-09-23T13:12:16;1.50;;;1.30;;
15167;SDS011;7684;52.150;11.656;2022-09-23T13:14:43;2.28;;;1.10;;
15167;SDS011;7684;52.150;11.656;2022-09-23T13:17:20;1.83;;;1.08;;
15167;SDS011;7684;52.150;11.656;2022-09-23T13:19:49;1.83;;;1.20;;
15167;SDS011;7684;52.150;11.656;2022-09-23T13:22:38;1.58;;;1.10;;
15167;SDS011;7684;52.150;11.656;2022-09-23T13:25:07;1.67;;;1.30;;
15167;SDS011;7684;52.150;11.656;2022-09-23T13:27:40;1.67;;;1.25;;
15167;SDS011;7684;52.150;11.656;2022-09-23T13:30:16;1.75;;;1.25;;
15167;SDS011;7684;52.150;11.656;2022-09-23T13:32:44;1.92;;;1.20;;
15167;SDS011;7684;52.150;11.656;2022-09-23T13:35:15;1.30;;;1.20;;
15167;SDS011;7684;52.150;11.656;2022-09-23T13:37:44;1.60;;;1.20;;
15167;SDS011;7684;52.150;11.656;2022-09-23T13:40:18;4.35;;;1.40;;
15167;SDS011;7684;52.150;11.656;2022-09-23T13:42:46;1.98;;;1.45;;
15167;SDS011;7684;52.150;11.656;2022-09-23T13:45:14;2.00;;;1.40;;
15167;SDS011;7684;52.150;11.656;2022-09-23T13:47:42;1.83;;;1.13;;
15167;SDS011;7684;52.150;11.656;2022-09-23T13:50:12;2.17;;;1.30;;
15167;SDS011;7684;52.150;11.656;2022-09-23T13:52:41;4.45;;;1.90;;
15167;SDS011;7684;52.150;11.656;2022-09-23T13:55:22;2.42;;;1.35;;
15167;SDS011;7684;52.150;11.656;2022-09-23T13:57:55;1.55;;;1.15;;
15167;SDS011;7684;52.150;11.656;2022-09-23T14:00:22;1.48;;;1.13;;
15167;SDS011;7684;52.150;11.656;2022-09-23T14:02:49;2.15;;;1.48;;
15167;SDS011;7684;52.150;11.656;2022-09-23T14:05:19;1.00;;;0.90;;
15167;SDS011;7684;52.150;11.656;2022-09-23T14:07:48;1.27;;;0.95;;
15167;SDS011;7684;52.150;11.656;2022-09-23T14:10:16;2.05;;;1.10;;
15167;SDS011;7684;52.150;11.656;2022-09-23T14:12:43;2.85;;;1.00;;
15167;SDS011;7684;52.150;11.656;2022-09-23T14:15:12;1.25;;;0.80;;
15167;SDS011;7684;52.150;11.656;2022-09-23T14:17:38;1.50;;;0.90;;
15167;SDS011;7684;52.150;11.656;2022-09-23T14:20:10;1.38;;;1.00;;
15167;SDS011;7684;52.150;11.656;2022-09-23T14:22:38;0.85;;;0.80;;
15167;SDS011;7684;52.150;11.656;2022-09-23T14:25:07;2.35;;;0.88;;
15167;SDS011;7684;52.150;11.656;2022-09-23T14:27:37;1.58;;;0.80;;
15167;SDS011;7684;52.150;11.656;2022-09-23T14:30:05;1.20;;;0.90;;
15167;SDS011;7684;52.150;11.656;2022-09-23T14:32:35;0.68;;;0.68;;
15167;SDS011;7684;52.150;11.656;2022-09-23T14:35:06;1.10;;;0.88;;
15167;SDS011;7684;52.150;11.656;2022-09-23T14:37:41;2.85;;;1.02;;
15167;SDS011;7684;52.150;11.656;2022-09-23T14:40:27;2.60;;;1.00;;
15167;SDS011;7684;52.150;11.656;2022-09-23T14:42:56;1.80;;;1.00;;
15167;SDS011;7684;52.150;11.656;2022-09-23T14:45:24;0.80;;;0.80;;
15167;SDS011;7684;52.150;11.656;2022-09-23T14:47:51;1.60;;;0.93;;
15167;SDS011;7684;52.150;11.656;2022-09-23T14:50:20;0.98;;;0.85;;
15167;SDS011;7684;52.150;11.656;2022-09-23T14:53:03;1.00;;;0.90;;
15167;SDS011;7684;52.150;11.656;2022-09-23T14:55:31;1.00;;;0.90;;
15167;SDS011;7684;52.150;11.656;2022-09-23T14:58:02;1.23;;;1.00;;
15167;SDS011;7684;52.150;11.656;2022-09-23T15:00:30;2.55;;;0.90;;
15167;SDS011;7684;52.150;11.656;2022-09-23T15:02:57;0.90;;;0.80;;
15167;SDS011;7684;52.150;11.656;2022-09-23T15:05:29;1.60;;;0.93;;
15167;SDS011;7684;52.150;11.656;2022-09-23T15:07:56;0.80;;;0.80;;
15167;SDS011;7684;52.150;11.656;2022-09-23T15:10:25;1.27;;;0.90;;
15167;SDS011;7684;52.150;11.656;2022-09-23T15:13:01;1.95;;;0.88;;
15167;SDS011;7684;52.150;11.656;2022-09-23T15:15:29;2.05;;;0.90;;
15167;SDS011;7684;52.150;11.656;2022-09-23T15:18:01;1.23;;;0.85;;
15167;SDS011;7684;52.150;11.656;2022-09-23T15:20:29;1.70;;;0.80;;
15167;SDS011;7684;52.150;11.656;2022-09-23T15:22:56;0.80;;;0.80;;
15167;SDS011;7684;52.150;11.656;2022-09-23T15:25:24;2.22;;;1.00;;
15167;SDS011;7684;52.150;11.656;2022-09-23T15:27:57;2.30;;;1.00;;
15167;SDS011;7684;52.150;11.656;2022-09-23T15:30:24;1.42;;;1.30;;
15167;SDS011;7684;52.150;11.656;2022-09-23T15:32:50;1.00;;;0.90;;
15167;SDS011;7684;52.150;11.656;2022-09-23T15:35:18;2.35;;;1.10;;
15167;SDS011;7684;52.150;11.656;2022-09-23T15:37:46;2.00;;;1.23;;
15167;SDS011;7684;52.150;11.656;2022-09-23T15:40:15;1.30;;;1.00;;
15167;SDS011;7684;52.150;11.656;2022-09-23T15:42:44;2.20;;;1.00;;
15167;SDS011;7684;52.150;11.656;2022-09-23T15:45:12;1.17;;;1.08;;
15167;SDS011;7684;52.150;11.656;2022-09-23T15:47:39;3.47;;;1.30;;
15167;SDS011;7684;52.150;11.656;2022-09-23T15:50:05;1.05;;;0.95;;
15167;SDS011;7684;52.150;11.656;2022-09-23T15:52:32;1.60;;;1.00;;
15167;SDS011;7684;52.150;11.656;2022-09-23T15:54:58;1.77;;;1.23;;
15167;SDS011;7684;52.150;11.656;2022-09-23T15:57:25;2.15;;;1.00;;
15167;SDS011;7684;52.150;11.656;2022-09-23T15:59:51;1.30;;;1.13;;
15167;SDS011;7684;52.150;11.656;2022-09-23T16:02:23;1.90;;;1.10;;
15167;SDS011;7684;52.150;11.656;2022-09-23T16:04:50;2.03;;;1.00;;
15167;SDS011;7684;52.150;11.656;2022-09-23T16:07:17;1.42;;;1.10;;
15167;SDS011;7684;52.150;11.656;2022-09-23T16:09:45;3.15;;;1.20;;
15167;SDS011;7684;52.150;11.656;2022-09-23T16:12:11;1.90;;;1.20;;
15167;SDS011;7684;52.150;11.656;2022-09-23T16:14:37;1.88;;;1.08;;
15167;SDS011;7684;52.150;11.656;2022-09-23T16:17:04;1.75;;;1.10;;
15167;SDS011;7684;52.150;11.656;2022-09-23T16:19:33;1.50;;;1.17;;
15167;SDS011;7684;52.150;11.656;2022-09-23T16:21:59;1.35;;;1.02;;
15167;SDS011;7684;52.150;11.656;2022-09-23T16:24:26;2.75;;;1.30;;
15167;SDS011;7684;52.150;11.656;2022-09-23T16:26:53;1.63;;;1.45;;
15167;SDS011;7684;52.150;11.656;2022-09-23T16:29:24;1.52;;;1.17;;
15167;SDS011;7684;52.150;11.656;2022-09-23T16:31:50;1.20;;;1.00;;
15167;SDS011;7684;52.150;11.656;2022-09-23T16:34:17;1.27;;;1.15;;
15167;SDS011;7684;52.150;11.656;2022-09-23T16:36:45;2.67;;;1.20;;
15167;SDS011;7684;52.150;11.656;2022-09-23T16:39:12;2.60;;;1.17;;
15167;SDS011;7684;52.150;11.656;2022-09-23T16:41:38;2.85;;;1.10;;
15167;SDS011;7684;52.150;11.656;2022-09-23T16:44:07;1.42;;;1.20;;
15167;SDS011;7684;52.150;11.656;2022-09-23T16:46:34;2.38;;;1.48;;
15167;SDS011;7684;52.150;11.656;2022-09-23T16:49:01;1.42;;;1.20;;
15167;SDS011;7684;52.150;11.656;2022-09-23T16:51:28;2.50;;;1.17;;
15167;SDS011;7684;52.150;11.656;2022-09-23T16:53:57;2.22;;;1.20;;
15167;SDS011;7684;52.150;11.656;2022-09-23T16:56:24;3.33;;;1.13;;
15167;SDS011;7684;52.150;11.656;2022-09-23T16:58:51;1.93;;;1.10;;
15167;SDS011;7684;52.150;11.656;2022-09-23T17:01:19;2.10;;;1.13;;
15167;SDS011;7684;52.150;11.656;2022-09-23T17:04:03;2.37;;;1.60;;
15167;SDS011;7684;52.150;11.656;2022-09-23T17:06:30;2.20;;;1.40;;
15167;SDS011;7684;52.150;11.656;2022-09-23T17:08:58;2.50;;;1.50;;
15167;SDS011;7684;52.150;11.656;2022-09-23T17:11:24;1.80;;;1.50;;
15167;SDS011;7684;52.150;11.656;2022-09-23T17:13:50;2.10;;;1.40;;
15167;SDS011;7684;52.150;11.656;2022-09-23T17:16:21;2.17;;;1.30;;
15167;SDS011;7684;52.150;11.656;2022-09-23T17:18:48;2.37;;;1.80;;
15167;SDS011;7684;52.150;11.656;2022-09-23T17:21:14;3.00;;;1.40;;
15167;SDS011;7684;52.150;11.656;2022-09-23T17:23:41;4.93;;;1.60;;
15167;SDS011;7684;52.150;11.656;2022-09-23T17:26:08;3.47;;;1.50;;
15167;SDS011;7684;52.150;11.656;2022-09-23T17:28:36;1.60;;;1.50;;
15167;SDS011;7684;52.150;11.656;2022-09-23T17:31:03;3.80;;;1.90;;
15167;SDS011;7684;52.150;11.656;2022-09-23T17:33:30;3.20;;;1.73;;
15167;SDS011;7684;52.150;11.656;2022-09-23T17:35:57;2.23;;;1.90;;
15167;SDS011;7684;52.150;11.656;2022-09-23T17:38:24;2.13;;;1.53;;
15167;SDS011;7684;52.150;11.656;2022-09-23T17:40:51;3.00;;;1.80;;
15167;SDS011;7684;52.150;11.656;2022-09-23T17:43:19;2.13;;;1.63;;
15167;SDS011;7684;52.150;11.656;2022-09-23T17:45:49;4.47;;;2.00;;
15167;SDS011;7684;52.150;11.656;2022-09-23T17:48:16;2.87;;;1.83;;
15167;SDS011;7684;52.150;11.656;2022-09-23T17:50:52;3.87;;;2.07;;
15167;SDS011;7684;52.150;11.656;2022-09-23T17:53:18;3.63;;;2.07;;
15167;SDS011;7684;52.150;11.656;2022-09-23T17:55:52;1.90;;;1.60;;
15167;SDS011;7684;52.150;11.656;2022-09-23T17:58:20;2.37;;;2.13;;
15167;SDS011;7684;52.150;11.656;2022-09-23T18:00:48;3.30;;;2.17;;
15167;SDS011;7684;52.150;11.656;2022-09-23T18:03:15;2.20;;;2.00;;
15167;SDS011;7684;52.150;11.656;2022-09-23T18:05:41;2.60;;;2.40;;
15167;SDS011;7684;52.150;11.656;2022-09-23T18:08:08;2.60;;;2.40;;
15167;SDS011;7684;52.150;11.656;2022-09-23T18:10:34;2.27;;;2.07;;
15167;SDS011;7684;52.150;11.656;2022-09-23T18:13:01;5.37;;;2.40;;
15167;SDS011;7684;52.150;11.656;2022-09-23T18:15:28;2.97;;;2.10;;
15167;SDS011;7684;52.150;11.656;2022-09-23T18:17:55;2.47;;;2.23;;
15167;SDS011;7684;52.150;11.656;2022-09-23T18:20:22;3.77;;;2.63;;
15167;SDS011;7684;52.150;11.656;2022-09-23T18:22:48;4.07;;;2.60;;
15167;SDS011;7684;52.150;11.656;2022-09-23T18:25:14;3.00;;;2.67;;
15167;SDS011;7684;52.150;11.656;2022-09-23T18:27:41;4.50;;;2.83;;
15167;SDS011;7684;52.150;11.656;2022-09-23T18:30:08;3.03;;;2.77;;
15167;SDS011;7684;52.150;11.656;2022-09-23T18:32:36;4.60;;;3.30;;
15167;SDS011;7684;52.150;11.656;2022-09-23T18:35:02;4.07;;;3.53;;
15167;SDS011;7684;52.150;11.656;2022-09-23T18:37:29;3.80;;;2.90;;
15167;SDS011;7684;52.150;11.656;2022-09-23T18:39:55;2.90;;;2.60;;
15167;SDS011;7684;52.150;11.656;2022-09-23T18:42:22;2.93;;;2.50;;
15167;SDS011;7684;52.150;11.656;2022-09-23T18:44:50;3.13;;;2.63;;
15167;SDS011;7684;52.150;11.656;2022-09-23T18:47:20;3.17;;;2.87;;
15167;SDS011;7684;52.150;11.656;2022-09-23T18:50:02;3.60;;;3.30;;
15167;SDS011;7684;52.150;11.656;2022-09-23T18:52:46;3.50;;;3.20;;
15167;SDS011;7684;52.150;11.656;2022-09-23T18:55:12;5.07;;;2.90;;
15167;SDS011;7684;52.150;11.656;2022-09-23T18:57:39;3.67;;;3.10;;
15167;SDS011;7684;52.150;11.656;2022-09-23T19:00:06;3.23;;;2.93;;
15167;SDS011;7684;52.150;11.656;2022-09-23T19:02:33;3.63;;;3.00;;
15167;SDS011;7684;52.150;11.656;2022-09-23T19:04:59;3.27;;;2.90;;
15167;SDS011;7684;52.150;11.656;2022-09-23T19:07:27;4.83;;;3.43;;
15167;SDS011;7684;52.150;11.656;2022-09-23T19:09:53;3.27;;;2.97;;
15167;SDS011;7684;52.150;11.656;2022-09-23T19:12:20;6.17;;;3.57;;
15167;SDS011;7684;52.150;11.656;2022-09-23T19:14:47;3.23;;;2.93;;
15167;SDS011;7684;52.150;11.656;2022-09-23T19:17:13;7.03;;;4.47;;
15167;SDS011;7684;52.150;11.656;2022-09-23T19:19:40;6.23;;;4.73;;